Panama City/Tyndall AFB, Florida
Current Conditions -  °F | °C
As of 1:23 AM on Sunday 23 Nov 2014 (Local Time) from KPAM Reporting Station
Drizzle Drizzle  
Wind Chill: 64°   Ceiling: 900
Heat Index: 64°   Visibility: 10mi
Dew Point: 64°   Wind: 8mph
Humidity: 100%   Direction: 80°E
Pressure: 29.95"   Gusts: NA
Location:  30.06°N, 85.58°W
Report Text: KPAM 230723Z AUTO 08007KT 10SM -DZ BKN009 BKN016 18/18 A2995 RMK AO2 CIG 009V016 BKN009 V SCT $
Loading
Personal Weather Stations






























Interactive Weather Map New forecast layout! Learn more

10-Day Weather Forecast

Advertisements
Track Severe Weather on mobile